createdAt,value
2022-10-10T00:02:23.799Z,83.19
2022-10-10T00:04:56.261Z,83.42
2022-10-10T00:07:30.237Z,83.60
2022-10-10T00:10:02.657Z,83.56
2022-10-10T00:12:34.743Z,83.56
2022-10-10T00:15:07.840Z,83.56
2022-10-10T00:17:40.518Z,83.46
2022-10-10T00:20:13.408Z,83.53
2022-10-10T00:22:45.686Z,83.70
2022-10-10T00:25:18.076Z,83.86
2022-10-10T00:27:50.096Z,83.87
2022-10-10T00:30:22.309Z,83.83
2022-10-10T00:32:55.038Z,84.02
2022-10-10T00:35:27.616Z,84.26
2022-10-10T00:38:00.739Z,84.41
2022-10-10T00:40:33.372Z,84.41
2022-10-10T00:43:05.953Z,84.57
2022-10-10T00:45:43.392Z,84.55
2022-10-10T00:48:19.777Z,84.98
2022-10-10T00:50:56.916Z,84.95
2022-10-10T00:53:33.301Z,84.77
2022-10-10T00:56:08.702Z,85.08
2022-10-10T00:58:44.130Z,85.29
2022-10-10T01:01:17.162Z,85.42
2022-10-10T01:03:49.698Z,85.53
2022-10-10T01:06:22.093Z,85.68
2022-10-10T01:08:54.554Z,85.73
2022-10-10T01:11:43.018Z,85.84
2022-10-10T01:14:27.736Z,85.76
2022-10-10T01:17:08.304Z,85.98
2022-10-10T01:20:08.203Z,86.14
2022-10-10T01:22:51.081Z,86.34
2022-10-10T01:25:30.905Z,86.18
2022-10-10T01:28:09.156Z,86.22
2022-10-10T01:30:43.611Z,86.15
2022-10-10T01:33:26.048Z,86.28
2022-10-10T01:36:03.829Z,86.24
2022-10-10T01:38:43.892Z,86.17
2022-10-10T01:41:19.692Z,86.54
2022-10-10T01:43:56.298Z,86.37
2022-10-10T01:46:28.443Z,86.43
2022-10-10T01:49:01.742Z,86.37
2022-10-10T01:51:53.229Z,86.49
2022-10-10T01:54:39.039Z,86.50
2022-10-10T01:57:22.802Z,86.78
2022-10-10T02:00:05.495Z,86.92
2022-10-10T02:02:52.201Z,87.36
2022-10-10T02:05:31.059Z,87.25
2022-10-10T02:08:07.646Z,87.18
2022-10-10T02:10:44.896Z,87.26
2022-10-10T02:13:19.303Z,87.33
2022-10-10T02:15:55.004Z,87.46
2022-10-10T02:18:33.673Z,87.26
2022-10-10T02:21:12.490Z,87.40
2022-10-10T02:23:46.991Z,87.30
2022-10-10T02:26:23.210Z,87.37
2022-10-10T02:28:58.685Z,87.38
2022-10-10T02:31:39.375Z,87.33
2022-10-10T02:34:11.661Z,87.49
2022-10-10T02:36:47.824Z,87.62
2022-10-10T02:39:22.293Z,87.64
2022-10-10T02:41:55.496Z,87.63
2022-10-10T02:44:28.524Z,87.50
2022-10-10T02:47:00.904Z,87.27
2022-10-10T02:49:35.051Z,86.95
2022-10-10T02:52:07.466Z,86.93
2022-10-10T02:54:39.725Z,86.92
2022-10-10T02:57:12.407Z,87.13
2022-10-10T02:59:44.418Z,86.82
2022-10-10T03:02:16.410Z,86.80
2022-10-10T03:04:50.346Z,86.62
2022-10-10T03:07:22.656Z,86.95
2022-10-10T03:09:54.944Z,86.87
2022-10-10T03:12:27.019Z,86.93
2022-10-10T03:14:59.032Z,86.61
2022-10-10T03:17:31.292Z,86.68
2022-10-10T03:20:03.842Z,86.66
2022-10-10T03:22:35.823Z,86.65
2022-10-10T03:25:09.277Z,87.00
2022-10-10T03:27:41.557Z,87.28
2022-10-10T03:30:14.934Z,87.11
2022-10-10T03:32:47.032Z,87.29
2022-10-10T03:35:19.224Z,87.52
2022-10-10T03:37:51.264Z,87.65
2022-10-10T03:40:23.483Z,87.96
2022-10-10T03:42:55.568Z,88.45
2022-10-10T03:45:27.897Z,88.37
2022-10-10T03:48:02.117Z,88.36
2022-10-10T03:50:33.782Z,88.54
2022-10-10T03:53:05.843Z,88.50
2022-10-10T03:55:40.138Z,88.38
2022-10-10T03:58:12.448Z,88.43
2022-10-10T04:00:44.622Z,88.61
2022-10-10T04:03:16.553Z,88.83
2022-10-10T04:05:48.512Z,88.74
2022-10-10T04:08:20.901Z,88.73
2022-10-10T04:10:54.154Z,88.82
2022-10-10T04:13:27.593Z,88.72
2022-10-10T04:15:59.507Z,88.92
2022-10-10T04:18:31.525Z,88.93
2022-10-10T04:21:06.068Z,88.85
2022-10-10T04:23:38.389Z,88.91
2022-10-10T04:26:12.747Z,88.98
2022-10-10T04:28:44.855Z,88.83
2022-10-10T04:31:17.052Z,88.83
2022-10-10T04:33:49.276Z,89.00
2022-10-10T04:36:21.256Z,88.91
2022-10-10T04:38:53.664Z,88.96
2022-10-10T04:41:25.716Z,89.02
2022-10-10T04:43:58.025Z,89.06
2022-10-10T04:46:30.084Z,88.94
2022-10-10T04:49:04.948Z,89.08
2022-10-10T04:51:37.518Z,89.10
2022-10-10T04:54:10.074Z,88.93
2022-10-10T04:56:43.037Z,89.02
2022-10-10T04:59:15.639Z,89.19
2022-10-10T05:01:47.564Z,89.18
2022-10-10T05:04:19.589Z,89.39
2022-10-10T05:06:51.601Z,89.22
2022-10-10T05:09:23.646Z,89.34
2022-10-10T05:11:55.650Z,89.19
2022-10-10T05:14:27.790Z,89.31
2022-10-10T05:16:59.735Z,89.50
2022-10-10T05:19:31.807Z,89.42
2022-10-10T05:22:03.709Z,89.56
2022-10-10T05:24:35.838Z,89.72
2022-10-10T05:27:07.792Z,89.78
2022-10-10T05:29:39.681Z,89.67
2022-10-10T05:32:11.681Z,89.87
2022-10-10T05:34:44.267Z,89.73
2022-10-10T05:37:17.013Z,89.89
2022-10-10T05:39:53.757Z,89.75
2022-10-10T05:42:26.656Z,89.70
2022-10-10T05:44:58.943Z,89.84
2022-10-10T05:47:31.107Z,89.93
2022-10-10T05:50:03.938Z,89.86
2022-10-10T05:52:36.374Z,89.92
2022-10-10T05:55:09.464Z,90.00
2022-10-10T05:57:41.417Z,89.82
2022-10-10T06:00:15.253Z,89.78
2022-10-10T06:02:47.873Z,89.69
2022-10-10T06:05:20.290Z,89.61
2022-10-10T06:08:05.716Z,89.57
2022-10-10T06:10:44.506Z,89.65
2022-10-10T06:13:23.108Z,89.74
2022-10-10T06:15:56.546Z,89.95
2022-10-10T06:18:28.576Z,89.45
2022-10-10T06:21:04.776Z,88.67
2022-10-10T06:23:40.136Z,88.13
2022-10-10T06:26:12.816Z,87.66
2022-10-10T06:28:44.844Z,87.26
2022-10-10T06:31:17.952Z,87.06
2022-10-10T06:33:50.164Z,86.82
2022-10-10T06:36:22.073Z,86.40
2022-10-10T06:38:55.375Z,86.64
2022-10-10T06:41:27.353Z,86.24
2022-10-10T06:43:59.903Z,86.48
2022-10-10T06:46:34.370Z,86.78
2022-10-10T06:49:06.412Z,87.74
2022-10-10T06:51:39.441Z,88.62
2022-10-10T06:54:12.143Z,87.13
2022-10-10T06:56:44.206Z,84.75
2022-10-10T06:59:16.178Z,80.84
2022-10-10T07:01:50.269Z,78.25
2022-10-10T07:04:22.166Z,77.00
2022-10-10T07:06:54.430Z,78.59
2022-10-10T07:09:26.664Z,79.78
2022-10-10T07:11:58.546Z,79.47
2022-10-10T07:14:30.432Z,79.70
2022-10-10T07:17:03.221Z,78.94
2022-10-10T07:19:37.245Z,77.71
2022-10-10T07:22:09.217Z,73.45
2022-10-10T07:24:41.221Z,69.73
2022-10-10T07:27:13.648Z,67.14
2022-10-10T07:29:45.816Z,69.36
2022-10-10T07:32:18.066Z,71.07
2022-10-10T07:34:51.021Z,70.80
2022-10-10T07:37:23.062Z,67.00
2022-10-10T07:39:56.867Z,64.35
2022-10-10T07:42:29.137Z,65.74
2022-10-10T07:45:18.932Z,63.52
2022-10-10T07:48:03.090Z,61.59
2022-10-10T07:50:35.256Z,59.64
2022-10-10T07:53:08.108Z,55.86
2022-10-10T07:55:43.025Z,55.27
2022-10-10T07:58:15.692Z,54.53
2022-10-10T08:00:47.668Z,53.59
2022-10-10T08:03:20.163Z,53.75
2022-10-10T08:05:52.097Z,53.64
2022-10-10T08:08:24.033Z,51.88
2022-10-10T08:10:55.948Z,49.83
2022-10-10T08:13:28.538Z,48.55
2022-10-10T08:16:03.130Z,46.75
2022-10-10T08:18:41.293Z,46.58
2022-10-10T08:21:15.377Z,46.34
2022-10-10T08:23:47.711Z,45.33
2022-10-10T08:26:48.194Z,43.81
2022-10-10T08:29:20.374Z,43.62
2022-10-10T08:31:52.638Z,44.93
2022-10-10T08:34:24.851Z,44.45
2022-10-10T08:36:57.137Z,44.06
2022-10-10T08:39:31.779Z,41.73
2022-10-10T08:42:04.928Z,40.00
2022-10-10T08:44:41.523Z,40.64
2022-10-10T08:47:20.157Z,41.13
2022-10-10T08:49:55.453Z,38.57
2022-10-10T08:52:33.318Z,38.06
2022-10-10T08:55:08.907Z,36.01
2022-10-10T08:57:48.775Z,33.38
2022-10-10T09:00:25.100Z,32.54
2022-10-10T09:03:00.760Z,31.33
2022-10-10T09:05:50.844Z,29.92
2022-10-10T09:08:37.949Z,29.21
2022-10-10T09:11:23.144Z,28.57
2022-10-10T09:14:08.682Z,25.47
2022-10-10T09:16:47.073Z,26.44
2022-10-10T09:19:29.846Z,26.74
2022-10-10T09:22:06.080Z,25.03
2022-10-10T09:24:43.622Z,23.52
2022-10-10T09:27:23.770Z,22.39
2022-10-10T09:30:00.527Z,22.54
2022-10-10T09:32:37.396Z,22.69
2022-10-10T09:35:20.386Z,23.08
2022-10-10T09:37:57.868Z,23.46
2022-10-10T09:40:33.759Z,24.37
2022-10-10T09:43:15.564Z,24.83
2022-10-10T09:45:52.469Z,25.21
2022-10-10T09:48:28.691Z,25.57
2022-10-10T09:51:01.495Z,25.93
2022-10-10T09:53:34.714Z,26.42
2022-10-10T09:56:09.422Z,27.07
2022-10-10T09:58:44.433Z,27.86
2022-10-10T10:01:21.100Z,28.48
2022-10-10T10:04:28.178Z,28.87
2022-10-10T10:07:19.441Z,29.78
2022-10-10T10:09:53.386Z,30.00
2022-10-10T10:12:31.016Z,30.11
2022-10-10T10:15:06.403Z,30.75
2022-10-10T10:17:38.367Z,31.19
2022-10-10T10:20:35.266Z,31.63
2022-10-10T10:23:23.345Z,32.06
2022-10-10T10:26:02.876Z,32.46
2022-10-10T10:28:41.020Z,32.79
2022-10-10T10:31:26.674Z,33.42
2022-10-10T10:34:16.083Z,33.61
2022-10-10T10:36:56.949Z,33.93
2022-10-10T10:39:44.343Z,34.67
2022-10-10T10:42:29.135Z,34.80
2022-10-10T10:45:11.117Z,35.23
2022-10-10T10:47:54.312Z,35.75
2022-10-10T10:50:42.997Z,36.44
2022-10-10T10:53:29.867Z,36.90
2022-10-10T10:56:12.398Z,37.03
2022-10-10T10:59:41.718Z,37.20
2022-10-10T11:02:54.272Z,37.88
2022-10-10T11:05:42.059Z,38.48
2022-10-10T11:08:29.345Z,38.58
2022-10-10T11:11:14.287Z,38.57
2022-10-10T11:19:56.805Z,39.68
2022-10-10T11:23:32.825Z,39.96
2022-10-10T11:30:20.953Z,40.31
2022-10-10T11:42:55.007Z,41.16
2022-10-10T11:50:18.824Z,41.63
2022-10-10T11:54:44.720Z,42.08
2022-10-10T12:42:52.688Z,43.61
2022-10-10T12:46:33.462Z,43.21
2022-10-10T13:02:38.270Z,44.28
2022-10-10T13:05:31.922Z,44.20
2022-10-10T13:08:07.077Z,44.63
2022-10-10T13:11:22.167Z,44.10
2022-10-10T13:23:07.098Z,41.55
2022-10-10T13:26:45.500Z,41.23
2022-10-10T13:38:09.793Z,39.93
2022-10-10T13:40:43.122Z,40.05
2022-10-10T13:43:18.300Z,39.60
2022-10-10T13:46:39.754Z,39.52
2022-10-10T13:54:48.541Z,39.61
2022-10-10T14:13:26.388Z,40.86
2022-10-10T14:17:21.402Z,40.66
2022-10-10T14:20:00.498Z,40.86
2022-10-10T14:22:32.582Z,41.28
2022-10-10T14:29:59.747Z,41.42
2022-10-10T14:32:38.207Z,41.90
2022-10-10T14:35:53.678Z,42.04
2022-10-10T14:38:26.105Z,42.13
2022-10-10T14:40:58.252Z,42.38
2022-10-10T14:43:43.434Z,42.65
2022-10-10T14:47:07.992Z,43.03
2022-10-10T14:49:58.963Z,43.42
2022-10-10T14:53:18.856Z,43.66
2022-10-10T14:55:55.949Z,43.89
2022-10-10T14:59:47.219Z,44.41
2022-10-10T15:12:11.988Z,46.05
2022-10-10T15:15:25.988Z,46.19
2022-10-10T15:17:59.683Z,46.57
2022-10-10T15:28:48.636Z,47.96
2022-10-10T15:31:35.937Z,48.23
2022-10-10T15:34:46.237Z,48.22
2022-10-10T15:37:18.795Z,48.62
2022-10-10T15:39:50.826Z,48.85
2022-10-10T15:54:50.755Z,50.42
2022-10-10T15:58:00.388Z,50.75
2022-10-10T16:00:32.627Z,51.04
2022-10-10T16:03:11.035Z,51.22
2022-10-10T16:10:19.000Z,52.37
2022-10-10T16:18:29.454Z,53.36
2022-10-10T16:21:02.133Z,53.67
2022-10-10T16:23:35.828Z,53.98
2022-10-10T16:26:17.517Z,54.18
2022-10-10T16:29:40.368Z,54.34
2022-10-10T16:37:03.541Z,55.09
2022-10-10T16:40:02.879Z,55.09
2022-10-10T16:42:41.889Z,55.33
2022-10-10T16:45:14.774Z,55.26
2022-10-10T16:47:53.821Z,55.65
2022-10-10T16:50:25.956Z,55.68
2022-10-10T16:53:04.901Z,55.75
2022-10-10T17:09:19.085Z,56.99
2022-10-10T17:11:51.619Z,56.94
2022-10-10T17:20:01.419Z,57.34
2022-10-10T17:27:14.081Z,58.11
2022-10-10T17:29:46.220Z,58.21
2022-10-10T17:32:18.432Z,58.41
2022-10-10T17:34:56.834Z,58.54
2022-10-10T17:37:29.699Z,58.45
2022-10-10T17:44:13.588Z,59.05
2022-10-10T17:47:36.379Z,59.45
2022-10-10T17:50:10.908Z,59.49
2022-10-10T17:57:56.789Z,60.15
2022-10-10T18:00:29.173Z,60.36
2022-10-10T18:07:57.528Z,60.77
2022-10-10T18:10:30.353Z,61.02
2022-10-10T18:13:09.571Z,61.16
2022-10-10T18:15:41.841Z,61.51
2022-10-10T18:23:07.015Z,61.81
2022-10-10T18:30:49.466Z,62.42
2022-10-10T18:38:25.507Z,62.91
2022-10-10T18:45:34.668Z,63.54
2022-10-10T18:48:12.988Z,63.51
2022-10-10T18:55:39.781Z,64.12
2022-10-10T18:58:25.393Z,64.23
2022-10-10T19:09:48.365Z,64.96
2022-10-10T19:16:41.027Z,65.56
2022-10-10T19:19:14.228Z,65.44
2022-10-10T19:21:48.133Z,65.56
